createdAt,value
2023-03-02T00:02:28.609Z,102132.81
2023-03-02T00:07:34.783Z,102124.41
2023-03-02T00:12:36.840Z,102125.94
2023-03-02T00:17:48.044Z,102132.00
2023-03-02T00:22:50.234Z,102142.22
2023-03-02T00:27:52.640Z,102126.94
2023-03-02T00:32:55.708Z,102124.66
2023-03-02T00:37:58.742Z,102125.34
2023-03-02T00:43:00.965Z,102120.22
2023-03-02T00:48:04.493Z,102128.78
2023-03-02T00:53:07.043Z,102130.25
2023-03-02T00:58:09.210Z,102136.91
2023-03-02T01:03:12.672Z,102134.66
2023-03-02T01:08:15.378Z,102133.38
2023-03-02T01:13:17.477Z,102126.19
2023-03-02T01:18:20.965Z,102128.59
2023-03-02T01:23:23.045Z,102124.75
2023-03-02T01:28:25.256Z,102124.06
2023-03-02T01:33:28.345Z,102120.25
2023-03-02T01:38:30.582Z,102118.88
2023-03-02T01:43:32.923Z,102108.56
2023-03-02T01:48:42.788Z,102111.28
2023-03-02T01:53:46.430Z,102098.69
2023-03-02T01:58:51.375Z,102096.66
2023-03-02T02:03:55.424Z,102092.13
2023-03-02T02:08:59.502Z,102091.53
2023-03-02T02:14:04.110Z,102088.50
2023-03-02T02:19:15.904Z,102091.91
2023-03-02T02:24:25.235Z,102078.88
2023-03-02T02:29:32.724Z,102079.47
2023-03-02T02:34:41.028Z,102081.41
2023-03-02T02:39:46.879Z,102084.06
2023-03-02T02:44:57.334Z,102082.31
2023-03-02T02:49:59.364Z,102077.50
2023-03-02T02:55:02.452Z,102071.31
2023-03-02T03:00:07.818Z,102081.34
2023-03-02T03:05:14.462Z,102073.25
2023-03-02T03:10:23.220Z,102070.16
2023-03-02T03:15:27.171Z,102068.25
2023-03-02T03:20:29.669Z,102052.09
2023-03-02T03:25:31.515Z,102058.75
2023-03-02T03:30:35.288Z,102060.88
2023-03-02T03:35:37.201Z,102065.47
2023-03-02T03:40:39.326Z,102052.41
2023-03-02T03:45:42.949Z,102060.06
2023-03-02T03:50:45.222Z,102049.69
2023-03-02T03:55:47.404Z,102057.63
2023-03-02T04:00:50.561Z,102064.47
2023-03-02T04:05:55.903Z,102074.72
2023-03-02T04:10:58.205Z,102072.13
2023-03-02T04:16:01.946Z,102062.31
2023-03-02T04:21:04.594Z,102064.47
2023-03-02T04:26:06.759Z,102051.88
2023-03-02T04:31:10.366Z,102048.84
2023-03-02T04:36:12.814Z,102051.56
2023-03-02T04:41:17.311Z,102055.59
2023-03-02T04:46:23.106Z,102058.75
2023-03-02T04:51:27.685Z,102063.25
2023-03-02T04:56:30.624Z,102060.09
2023-03-02T05:01:34.344Z,102055.84
2023-03-02T05:06:36.297Z,102055.59
2023-03-02T05:11:38.946Z,102046.94
2023-03-02T05:16:42.835Z,102060.53
2023-03-02T05:21:45.603Z,102051.28
2023-03-02T05:26:47.639Z,102044.81
2023-03-02T05:31:51.769Z,102058.50
2023-03-02T05:36:53.714Z,102061.91
2023-03-02T05:41:55.875Z,102064.47
2023-03-02T05:47:02.245Z,102058.28
2023-03-02T05:52:04.445Z,102060.56
2023-03-02T05:57:06.562Z,102061.31
2023-03-02T06:02:10.090Z,102056.16
2023-03-02T06:07:12.832Z,102056.47
2023-03-02T06:12:15.350Z,102059.72
2023-03-02T06:17:18.943Z,102058.91
2023-03-02T06:22:21.129Z,102067.75
2023-03-02T06:27:23.249Z,102068.19
2023-03-02T06:32:29.409Z,102063.88
2023-03-02T06:37:32.379Z,102071.19
2023-03-02T06:42:34.788Z,102077.78
2023-03-02T06:47:38.488Z,102073.94
2023-03-02T06:52:40.941Z,102083.28
2023-03-02T06:57:43.158Z,102083.53
2023-03-02T07:02:49.141Z,102087.38
2023-03-02T07:07:58.731Z,102089.13
2023-03-02T07:13:02.060Z,102081.72
2023-03-02T07:18:05.409Z,102084.63
2023-03-02T07:23:07.582Z,102087.88
2023-03-02T07:28:09.708Z,102080.53
2023-03-02T07:33:13.232Z,102078.34
2023-03-02T07:38:15.518Z,102074.81
2023-03-02T07:43:17.860Z,102073.50
2023-03-02T07:48:21.070Z,102066.22
2023-03-02T07:53:23.229Z,102072.44
2023-03-02T07:58:25.082Z,102072.97
2023-03-02T08:03:31.018Z,102057.38
2023-03-02T08:08:32.776Z,102070.22
2023-03-02T08:13:35.281Z,102056.09
2023-03-02T08:18:39.086Z,102057.91
2023-03-02T08:23:41.838Z,102047.44
2023-03-02T08:28:45.961Z,102059.22
2023-03-02T08:33:49.271Z,102066.38
2023-03-02T08:38:51.958Z,102065.06
2023-03-02T08:43:54.221Z,102059.09
2023-03-02T08:48:57.784Z,102063.31
2023-03-02T08:54:01.453Z,102060.44
2023-03-02T08:59:08.119Z,102049.97
2023-03-02T09:04:11.414Z,102047.94
2023-03-02T09:09:14.857Z,102039.13
2023-03-02T09:14:16.920Z,102044.78
2023-03-02T09:19:20.678Z,102039.00
2023-03-02T09:24:22.741Z,102031.09
2023-03-02T09:29:24.807Z,102017.22
2023-03-02T09:34:28.095Z,102026.63
2023-03-02T09:39:29.882Z,102016.59
2023-03-02T09:44:45.510Z,102014.31
2023-03-02T09:49:57.966Z,102024.13
2023-03-02T09:55:11.675Z,102027.81
2023-03-02T10:00:19.813Z,102013.88
2023-03-02T10:05:27.161Z,102022.00
2023-03-02T10:10:37.412Z,102019.56
2023-03-02T10:15:46.799Z,102014.38
2023-03-02T10:20:54.373Z,102010.13
2023-03-02T10:26:11.155Z,102016.44
2023-03-02T10:31:23.451Z,102017.00
2023-03-02T10:36:28.373Z,102019.00
2023-03-02T10:41:35.614Z,102018.81
2023-03-02T10:46:42.385Z,102012.88
2023-03-02T10:51:54.392Z,102003.09
2023-03-02T10:56:59.836Z,102006.63
2023-03-02T11:02:03.707Z,102001.56
2023-03-02T11:07:17.019Z,102000.16
2023-03-02T11:12:19.303Z,102000.84
2023-03-02T11:17:31.614Z,101985.19
2023-03-02T11:22:40.618Z,101999.88
2023-03-02T11:27:44.428Z,101995.13
2023-03-02T11:32:54.232Z,101998.97
2023-03-02T11:38:10.105Z,101989.38
2023-03-02T11:43:12.767Z,101986.06
2023-03-02T11:48:22.151Z,101990.09
2023-03-02T11:53:33.163Z,101965.63
2023-03-02T11:58:36.758Z,101975.75
2023-03-02T12:03:40.901Z,101965.94
2023-03-02T12:08:46.629Z,101959.16
2023-03-02T12:14:00.386Z,101959.88
2023-03-02T12:19:24.155Z,101958.06
2023-03-02T12:24:29.720Z,101945.81
2023-03-02T12:29:39.618Z,101935.50
2023-03-02T12:34:45.415Z,101923.25
2023-03-02T12:40:17.498Z,101901.63
2023-03-02T12:45:32.150Z,101916.13
2023-03-02T12:50:38.448Z,101904.72
2023-03-02T12:55:41.681Z,101903.88
2023-03-02T13:00:52.152Z,101903.03
2023-03-02T13:06:01.344Z,101888.50
2023-03-02T13:11:08.012Z,101880.66
2023-03-02T13:16:20.705Z,101875.03
2023-03-02T13:21:30.543Z,101875.53
2023-03-02T13:26:36.001Z,101882.78
2023-03-02T13:31:38.697Z,101875.78
2023-03-02T13:36:41.864Z,101885.31
2023-03-02T13:41:54.232Z,101889.09
2023-03-02T13:46:56.693Z,101877.13
2023-03-02T13:52:03.292Z,101863.44
2023-03-02T13:57:07.299Z,101854.25
2023-03-02T14:02:22.809Z,101848.44
2023-03-02T14:07:24.803Z,101842.28
2023-03-02T14:12:31.197Z,101831.97
2023-03-02T14:17:33.572Z,101838.78
2023-03-02T14:22:35.742Z,101835.44
2023-03-02T14:27:40.134Z,101834.00
2023-03-02T14:32:42.021Z,101824.56
2023-03-02T14:37:48.577Z,101815.03
2023-03-02T14:42:52.080Z,101811.56
2023-03-02T14:47:54.125Z,101809.63
2023-03-02T14:52:58.446Z,101807.00
2023-03-02T14:58:05.114Z,101804.47
2023-03-02T15:03:07.087Z,101804.72
2023-03-02T15:08:12.816Z,101806.75
2023-03-02T15:13:16.540Z,101812.31
2023-03-02T15:18:18.668Z,101812.31
2023-03-02T15:23:30.228Z,101816.16
2023-03-02T15:28:33.331Z,101817.41
2023-03-02T15:33:35.634Z,101821.22
2023-03-02T15:38:37.404Z,101827.28
2023-03-02T15:43:40.875Z,101820.06
2023-03-02T15:48:45.607Z,101812.88
2023-03-02T15:53:56.275Z,101815.34
2023-03-02T15:58:59.626Z,101812.63
2023-03-02T16:04:01.872Z,101802.91
2023-03-02T16:09:04.809Z,101801.66
2023-03-02T16:14:08.875Z,101801.19
2023-03-02T16:19:12.560Z,101794.34
2023-03-02T16:24:15.710Z,101796.13
2023-03-02T16:29:23.200Z,101800.75
2023-03-02T16:34:25.262Z,101797.22
2023-03-02T16:39:34.473Z,101790.22
2023-03-02T16:44:49.319Z,101800.81
2023-03-02T16:49:55.104Z,101798.00
2023-03-02T16:54:57.216Z,101795.25
2023-03-02T17:00:01.053Z,101806.66
2023-03-02T17:05:03.306Z,101811.34
2023-03-02T17:10:06.599Z,101818.88
2023-03-02T17:15:13.411Z,101826.19
2023-03-02T17:20:17.610Z,101821.91
2023-03-02T17:25:20.137Z,101834.44
2023-03-02T17:30:23.807Z,101842.47
2023-03-02T17:35:26.470Z,101842.88
2023-03-02T17:40:31.532Z,101847.31
2023-03-02T17:45:37.188Z,101853.50
2023-03-02T17:50:39.425Z,101845.78
2023-03-02T17:55:41.205Z,101846.88
2023-03-02T18:00:44.732Z,101851.84
2023-03-02T18:05:49.181Z,101854.63
2023-03-02T18:10:51.140Z,101856.13
2023-03-02T18:15:54.308Z,101859.69
2023-03-02T18:20:59.595Z,101866.28
2023-03-02T18:26:01.946Z,101866.41
2023-03-02T18:31:07.029Z,101871.63
2023-03-02T18:36:09.598Z,101867.91
2023-03-02T18:41:13.074Z,101858.22
2023-03-02T18:46:22.698Z,101873.38
2023-03-02T18:51:25.396Z,101859.84
2023-03-02T18:56:27.514Z,101873.38
2023-03-02T19:01:32.119Z,101871.78
2023-03-02T19:06:34.225Z,101873.72
2023-03-02T19:11:36.344Z,101867.72
2023-03-02T19:16:39.523Z,101878.19
2023-03-02T19:21:42.437Z,101863.91
2023-03-02T19:26:47.665Z,101875.59
2023-03-02T19:31:50.822Z,101874.25
2023-03-02T19:36:53.033Z,101873.44
2023-03-02T19:41:54.962Z,101885.59
2023-03-02T19:46:58.760Z,101874.63
2023-03-02T19:52:00.509Z,101878.03
2023-03-02T19:57:03.087Z,101879.84
2023-03-02T20:02:06.437Z,101879.41
2023-03-02T20:07:08.573Z,101888.19
2023-03-02T20:12:10.355Z,101883.19
2023-03-02T20:17:13.893Z,101882.69
2023-03-02T20:22:17.459Z,101879.91
2023-03-02T20:27:20.321Z,101885.06
2023-03-02T20:32:23.644Z,101885.47
2023-03-02T20:37:26.401Z,101888.97
2023-03-02T20:42:29.324Z,101893.78
2023-03-02T20:47:32.754Z,101907.28
2023-03-02T20:52:34.783Z,101893.47
2023-03-02T20:57:36.654Z,101902.44
2023-03-02T21:02:40.237Z,101908.69
2023-03-02T21:07:42.714Z,101894.78
2023-03-02T21:12:45.278Z,101894.72
2023-03-02T21:17:48.805Z,101903.38
2023-03-02T21:22:50.627Z,101905.63
2023-03-02T21:27:53.053Z,101896.75
2023-03-02T21:32:56.751Z,101900.47
2023-03-02T21:37:59.881Z,101906.84
2023-03-02T21:43:02.825Z,101892.94
2023-03-02T21:48:07.368Z,101895.94
2023-03-02T21:53:09.642Z,101906.16
2023-03-02T21:58:12.284Z,101904.22
2023-03-02T22:03:15.452Z,101896.72
2023-03-02T22:08:19.600Z,101903.34
2023-03-02T22:13:23.634Z,101891.50
2023-03-02T22:18:28.012Z,101887.72
2023-03-02T22:23:31.695Z,101882.41
2023-03-02T22:28:34.262Z,101879.72
2023-03-02T22:33:37.850Z,101872.47
2023-03-02T22:38:40.020Z,101878.66
2023-03-02T22:43:42.962Z,101875.00
2023-03-02T22:48:48.527Z,101877.69
2023-03-02T22:53:52.761Z,101873.44
2023-03-02T22:58:55.711Z,101869.38
2023-03-02T23:04:12.455Z,101854.22
2023-03-02T23:09:17.117Z,101845.16
2023-03-02T23:14:25.617Z,101837.25
2023-03-02T23:19:31.129Z,101853.56
2023-03-02T23:24:32.896Z,101838.28
2023-03-02T23:29:35.360Z,101834.59
2023-03-02T23:34:39.093Z,101825.28
2023-03-02T23:39:41.104Z,101809.16
2023-03-02T23:44:43.327Z,101807.13
2023-03-02T23:49:46.909Z,101808.31
2023-03-02T23:54:52.224Z,101815.63
2023-03-02T23:59:54.387Z,101823.78
